KCOD/COD METAR and TAF weather

Enter ICAO airport designator
Station Type Date Time Source
KCOD METAR 2018/04/20 06:56 UTC NOAA

KCOD 200656Z AUTO 24005KT 10SM CLR 06/M04 A3003 RMK AO2 SLP169 T00611039 401220000


Station Type Date Time Source
KCOD Decoded METAR 2018/04/20 06:56 UTC NOAA

Cody, WY, United States (KCOD) 44-31N 109-01W 1553M
Apr 20, 2018 - 02:56 AM EDT / 2018.04.20 0656 UTC
Wind: from the WSW (240 degrees) at 6 MPH (5 KT):0
Visibility: 10 mile(s):0
Sky conditions: clear
Temperature: 43.0 F (6.1 C)
Dew Point: 25.0 F (-3.9 C)
Relative Humidity: 48%
Pressure (altimeter): 30.03 in. Hg (1016 hPa)
ob: KCOD 200656Z AUTO 24005KT 10SM CLR 06/M04 A3003 RMK AO2 SLP169 T00611039 401220000
cycle: 7

Station Type Date Time Source
KCOD TAF 2018/04/20 06:33 UTC NOAA

TAF KCOD 200531Z 2006/2106 35008KT P6SM SCT090 BKN200
FM201500 36016G24KT P6SM OVC090
FM210100 32008KT P6SM SKC
AMD LTD TO CLD VIS AND WIND


Example: see airport list